»·PEaware :: UAL102 KTUS-KSAN

UAL102 :: KTUS-KSAN

FLIGHT INFORMATION

Flight Status: Arrived
Operator:
United Airlines
More flights by this operator :: More flights under this callsign
Pilot: Cole F. (14495)
Aircraft: BOEING 757-300
(B753)
More flights by this aircraft type
Origin: KTUS Tucson Intl
United States
Destination: KSAN San Diego Intl-Lindbergh
United States
More flights between these airports :: More routes between these airports
Route: +BURRO4 GBN J2 HOGGZ LUCKI1
File this flight plan on PilotEdge
Remarks:
Altitude:
(Current/Filed)
34,000ft
Speed:
(Current/Filed)
441kts
Departed: 06-Mar-18 10:28 AM
Arrived: 06-Mar-18 11:29 AM
Distance/Time
Traveled:
319nm/1:01
Distance/Time
To Go:
Arrived

Flight Plot

Page will automatically refresh every two minutes.

Flight plan parsing failed; only flown route is shown


Map Options




Map Legend


Flown Route
Filed Route
Departure Airport
Arrival Airport
Navaid (VOR, NDB)
Fix

Horizontal Profiles

Position Reports

Time Latitude Longitude Heading Altitude Ground
Speed
06-Mar-18 10:14 32.120738 -110.940059 74 2655ft 0kts
06-Mar-18 10:15 32.120738 -110.940059 74 2655ft 0kts
06-Mar-18 10:16 32.120738 -110.940059 74 2655ft 0kts
06-Mar-18 10:17 32.120738 -110.940059 74 2655ft 0kts
06-Mar-18 10:18 32.120738 -110.940059 74 2655ft 0kts
06-Mar-18 10:19 32.120738 -110.940059 74 2654ft 0kts
06-Mar-18 10:20 32.120738 -110.940059 74 2654ft 0kts
06-Mar-18 10:21 32.120738 -110.940059 74 2654ft 0kts
06-Mar-18 10:22 32.120738 -110.940059 74 2654ft 0kts
06-Mar-18 10:23 32.120738 -110.940059 74 2654ft 0kts
06-Mar-18 10:24 32.120738 -110.940059 74 2654ft 0kts
06-Mar-18 10:25 32.120691 -110.940263 74 2654ft 2kts
06-Mar-18 10:26 32.120840 -110.940878 156 2654ft 2kts
06-Mar-18 10:27 32.121035 -110.940919 179 2654ft 0kts
06-Mar-18 10:28 32.121035 -110.940919 179 2654ft 0kts
06-Mar-18 10:29 32.121035 -110.940919 179 2654ft 0kts
06-Mar-18 10:30 32.121035 -110.940919 179 2654ft 0kts
06-Mar-18 10:31 32.120062 -110.941177 239 2654ft 9kts
06-Mar-18 10:32 32.122027 -110.943886 315 2654ft 14kts
06-Mar-18 10:33 32.123615 -110.946535 228 2654ft 0kts
06-Mar-18 10:34 32.121679 -110.945917 134 2654ft 29kts
06-Mar-18 10:35 32.099941 -110.920718 134 3227ft 159kts
06-Mar-18 10:36 32.061236 -110.875472 141 4565ft 243kts
06-Mar-18 10:37 31.999361 -110.899703 230 7355ft 287kts
06-Mar-18 10:38 31.975432 -110.981763 294 10606ft 301kts
06-Mar-18 10:39 32.018692 -111.073412 299 13735ft 328kts
06-Mar-18 10:40 32.064987 -111.168130 298 16955ft 341kts
06-Mar-18 10:41 32.126209 -111.258029 309 19639ft 362kts
06-Mar-18 10:42 32.194461 -111.347398 309 22219ft 373kts
06-Mar-18 10:43 32.264812 -111.439533 309 24520ft 385kts
06-Mar-18 10:44 32.327475 -111.542958 301 26679ft 392kts
06-Mar-18 10:45 32.388407 -111.650930 300 28607ft 400kts
06-Mar-18 10:46 32.450282 -111.761074 300 30364ft 409kts
06-Mar-18 10:47 32.513561 -111.874050 300 32115ft 413kts
06-Mar-18 10:48 32.576385 -111.986552 299 34044ft 406kts
06-Mar-18 10:49 32.638224 -112.097662 299 34182ft 404kts
06-Mar-18 10:50 32.699918 -112.208826 299 34181ft 404kts
06-Mar-18 10:51 32.751317 -112.301687 299 34180ft 404kts
06-Mar-18 10:52 32.823196 -112.431938 299 34142ft 405kts
06-Mar-18 10:53 32.874442 -112.525078 299 34124ft 405kts
06-Mar-18 10:54 32.934073 -112.638219 290 34127ft 403kts
06-Mar-18 10:55 32.939445 -112.789109 262 34131ft 398kts
06-Mar-18 10:56 32.925898 -112.897777 261 34130ft 399kts
06-Mar-18 10:57 32.908451 -113.027990 261 34129ft 399kts
06-Mar-18 10:58 32.890682 -113.157906 261 34128ft 399kts
06-Mar-18 10:59 32.872651 -113.288472 261 34124ft 398kts
06-Mar-18 11:00 32.854587 -113.418166 261 34125ft 399kts
06-Mar-18 11:01 32.836365 -113.547991 261 34123ft 399kts
06-Mar-18 11:02 32.817995 -113.677859 261 34160ft 399kts
06-Mar-18 11:03 32.799449 -113.807969 261 34158ft 398kts
06-Mar-18 11:04 32.780850 -113.937428 261 34157ft 399kts
06-Mar-18 11:05 32.775074 -114.068581 270 34155ft 398kts
06-Mar-18 11:06 32.780126 -114.199651 272 34154ft 398kts
06-Mar-18 11:07 32.785314 -114.331416 272 34153ft 398kts
06-Mar-18 11:08 32.808074 -114.459768 286 34151ft 400kts
06-Mar-18 11:09 32.842310 -114.585406 286 34150ft 401kts
06-Mar-18 11:10 32.874788 -114.707964 279 34161ft 400kts
06-Mar-18 11:11 32.876568 -114.838989 268 33607ft 389kts
06-Mar-18 11:12 32.873959 -114.966545 268 32276ft 389kts
06-Mar-18 11:13 32.870983 -115.095007 268 30670ft 387kts
06-Mar-18 11:14 32.867887 -115.221675 268 28912ft 380kts
06-Mar-18 11:15 32.863764 -115.345801 262 27125ft 372kts
06-Mar-18 11:16 32.847344 -115.465893 260 25336ft 365kts
06-Mar-18 11:17 32.828755 -115.583235 258 23582ft 358kts
06-Mar-18 11:18 32.811659 -115.687582 258 22045ft 353kts
06-Mar-18 11:19 32.793220 -115.799486 257 20384ft 346kts
06-Mar-18 11:20 32.780527 -115.911363 263 18727ft 341kts
06-Mar-18 11:21 32.772155 -116.022610 263 17011ft 335kts
06-Mar-18 11:22 32.763895 -116.131579 263 15338ft 329kts
06-Mar-18 11:23 32.755694 -116.238511 263 13713ft 326kts
06-Mar-18 11:24 32.747518 -116.344298 263 12221ft 318kts
06-Mar-18 11:25 32.739212 -116.450419 262 10821ft 336kts
06-Mar-18 11:26 32.730093 -116.554535 264 9853ft 308kts
06-Mar-18 11:27 32.720299 -116.656004 264 8281ft 305kts
06-Mar-18 11:28 32.712875 -116.750054 264 7017ft 301kts
06-Mar-18 11:29 32.698809 -116.844459 250 5991ft 254kts
06-Mar-18 11:30 32.690714 -116.920233 274 5168ft 229kts
06-Mar-18 11:31 32.694610 -116.993418 273 4387ft 197kts
06-Mar-18 11:32 32.701220 -117.053613 284 3217ft 176kts
06-Mar-18 11:33 32.713673 -117.107743 287 1669ft 156kts
06-Mar-18 11:34 32.724613 -117.152691 287 670ft 139kts
06-Mar-18 11:35 32.734353 -117.192898 286 29ft 57kts
06-Mar-18 11:36 32.734886 -117.199323 274 28ft 9kts
06-Mar-18 11:37 32.735657 -117.203132 245 28ft 10kts

Navigation Log

Ident Type
Flight plan parsing failed, navigation log unavailable